Carnival Pride — H3VU — position and weather

sailwx.info

Track history (hours):
 
Tides and Currents Weather Stations Pressure Air Temp Water Temp Dewpoint Dewpoint Depression Visibility Wind Speed Wind Dir Waves Ship Positions

Carnival Pride

Operator: Carnival Cruise Lines

Last reported at 2017-Feb-19 18:33 UTC. Time now 2017-Feb-19 18:40 UTC.
Position N 27°57' W 082°27'.

Type: Ship. MMSI: 354215000.

Date/timePositionNaut miles runAvg speedWind from/ knotsBaromVisibWave heightAir tempDewpointWater temp
2017-Feb-19 18:33N 27°57' W 082°27'0 0.0
2017-Feb-19 17:33N 27°57' W 082°27'0 0.0
2017-Feb-19 16:33N 27°57' W 082°27'0 0.0
2017-Feb-19 15:33N 27°57' W 082°27'0 0.0
2017-Feb-19 14:30N 27°57' W 082°27'0 0.0
2017-Feb-19 13:33N 27°57' W 082°27'0 0.0
2017-Feb-19 12:33N 27°57' W 082°27'2 2.0
2017-Feb-19 11:33N 27°55' W 082°27'9 9.5
2017-Feb-19 10:33N 27°46' W 082°31'1413.8
2017-Feb-19 09:33N 27°36' W 082°42'1413.2
2017-Feb-19 08:30N 27°36' W 082°58'1010.8
2017-Feb-19 07:33N 27°28' W 083°06'45715.6
2017-Feb-18 02:13N 20°41' W 086°53'1218.5
2017-Feb-18 01:33N 20°30' W 086°59'1 1.1
2017-Feb-18 00:31N 20°29' W 086°59'0 0.0
2017-Feb-17 23:31N 20°29' W 086°59'0 0.0
2017-Feb-17 22:31N 20°29' W 086°59'0 0.0
2017-Feb-17 21:31N 20°29' W 086°59'0 0.0
2017-Feb-17 20:31N 20°29' W 086°59'0 0.0
2017-Feb-17 19:31N 20°29' W 086°59'0 0.0
2017-Feb-17 18:31N 20°29' W 086°59'0 0.0
2017-Feb-17 17:31N 20°29' W 086°59'0 0.0
2017-Feb-17 16:31N 20°29' W 086°59'0 0.0
2017-Feb-17 15:33N 20°29' W 086°59'5 5.2
2017-Feb-17 14:33N 20°34' W 086°58'  
2017-Feb-15 00:27N 27°36' W 082°56'1415.8
2017-Feb-14 23:34N 27°37' W 082°40'1414.3
2017-Feb-14 22:33N 27°48' W 082°29'8 8.4
2017-Feb-14 21:33N 27°56' W 082°27'1 0.9
2017-Feb-14 20:32N 27°57' W 082°27'0 0.0
2017-Feb-14 19:32N 27°57' W 082°27'0 0.0
2017-Feb-14 18:32N 27°57' W 082°27'0 0.0
2017-Feb-14 17:32N 27°57' W 082°27'0 0.0
2017-Feb-14 16:32N 27°57' W 082°27'0 0.0
2017-Feb-14 15:32N 27°57' W 082°27'0 0.0
2017-Feb-14 14:32N 27°57' W 082°27'0 0.0
2017-Feb-14 13:32N 27°57' W 082°27'0 0.0
2017-Feb-14 12:33N 27°57' W 082°27'2 2.2
2017-Feb-14 11:33N 27°54' W 082°26'10 9.9
2017-Feb-14 10:33N 27°46' W 082°31'1413.8
2017-Feb-14 09:33N 27°36' W 082°43'  
Track history (hours):
 
Tides and Currents Weather Stations Pressure Air Temp Water Temp Dewpoint Dewpoint Depression Visibility Wind Speed Wind Dir Waves Ship Positions

Carnival Pride

Operator: Carnival Cruise Lines

Last reported at 2017-Feb-19 18:33 UTC. Time now 2017-Feb-19 18:40 UTC.
Position N 27°57' W 082°27'.

Type: Ship. MMSI: 354215000.

Date/timePositionNaut miles runAvg speedWind from/ knotsBaromVisibWave heightAir tempDewpointWater temp
2017-Feb-19 18:33N 27°57' W 082°27'0 0.0
2017-Feb-19 17:33N 27°57' W 082°27'0 0.0
2017-Feb-19 16:33N 27°57' W 082°27'0 0.0
2017-Feb-19 15:33N 27°57' W 082°27'0 0.0
2017-Feb-19 14:30N 27°57' W 082°27'0 0.0
2017-Feb-19 13:33N 27°57' W 082°27'0 0.0
2017-Feb-19 12:33N 27°57' W 082°27'2 2.0
2017-Feb-19 11:33N 27°55' W 082°27'9 9.5
2017-Feb-19 10:33N 27°46' W 082°31'1413.8
2017-Feb-19 09:33N 27°36' W 082°42'1413.2
2017-Feb-19 08:30N 27°36' W 082°58'1010.8
2017-Feb-19 07:33N 27°28' W 083°06'45715.6
2017-Feb-18 02:13N 20°41' W 086°53'1218.5
2017-Feb-18 01:33N 20°30' W 086°59'1 1.1
2017-Feb-18 00:31N 20°29' W 086°59'0 0.0
2017-Feb-17 23:31N 20°29' W 086°59'0 0.0
2017-Feb-17 22:31N 20°29' W 086°59'0 0.0
2017-Feb-17 21:31N 20°29' W 086°59'0 0.0
2017-Feb-17 20:31N 20°29' W 086°59'0 0.0
2017-Feb-17 19:31N 20°29' W 086°59'0 0.0
2017-Feb-17 18:31N 20°29' W 086°59'0 0.0
2017-Feb-17 17:31N 20°29' W 086°59'0 0.0
2017-Feb-17 16:31N 20°29' W 086°59'0 0.0
2017-Feb-17 15:33N 20°29' W 086°59'5 5.2
2017-Feb-17 14:33N 20°34' W 086°58'  
2017-Feb-15 00:27N 27°36' W 082°56'1415.8
2017-Feb-14 23:34N 27°37' W 082°40'1414.3
2017-Feb-14 22:33N 27°48' W 082°29'8 8.4
2017-Feb-14 21:33N 27°56' W 082°27'1 0.9
2017-Feb-14 20:32N 27°57' W 082°27'0 0.0
2017-Feb-14 19:32N 27°57' W 082°27'0 0.0
2017-Feb-14 18:32N 27°57' W 082°27'0 0.0
2017-Feb-14 17:32N 27°57' W 082°27'0 0.0
2017-Feb-14 16:32N 27°57' W 082°27'0 0.0
2017-Feb-14 15:32N 27°57' W 082°27'0 0.0
2017-Feb-14 14:32N 27°57' W 082°27'0 0.0
2017-Feb-14 13:32N 27°57' W 082°27'0 0.0
2017-Feb-14 12:33N 27°57' W 082°27'2 2.2
2017-Feb-14 11:33N 27°54' W 082°26'10 9.9
2017-Feb-14 10:33N 27°46' W 082°31'1413.8
2017-Feb-14 09:33N 27°36' W 082°43'  

Dump ship's entire track history